Merchantville, NJ

4:17 PM EDT on August 25, 2016 (GMT -0400)
Terrace Ave | | Change Station
Active Advisory: Air Quality Alert

Elev 30 ft 39.94 °N, 75.06 °W | Updated 3 seconds ago

Overcast
Overcast
84.7 °F
Feels Like 87 °F
N
1.1
Wind Variable Wind from SW
Gusts 1.6 mph

Today
High -- | Low -- °F
--% Chance of Precip.
Yesterday
High -- | Low -- °F
Precip. -- in
Pressure 30.03 in
Visibility 10.0 miles
Clouds Mostly Cloudy 3700 ft
Mostly Cloudy 4900 ft
Overcast 26000 ft
Heat Index 87 °F
Dew Point 67 °F
Humidity 55%
Rainfall 0.00 in
Snow Depth Not available.
6:21 AM 7:41 PM
Last Quarter, 42% visible
METAR KPHL 251954Z 20011KT 10SM BKN037 BKN049 OVC260 29/21 A3003 RMK AO2 RAB33E42 SLP168 P0000 T02940211 $
Pressure 30.03 in
Visibility 10.0 miles
Clouds Mostly Cloudy 3700 ft
Mostly Cloudy 4900 ft
Overcast 26000 ft
Heat Index 87 °F
Dew Point 67 °F
Humidity 55%
Rainfall 0.00 in
Snow Depth Not available.
6:21 AM 7:41 PM
Last Quarter, 42% visible
METAR KPHL 251954Z 20011KT 10SM BKN037 BKN049 OVC260 29/21 A3003 RMK AO2 RAB33E42 SLP168 P0000 T02940211 $
A tropical disturbance pushing toward the Bahamas, is expected to develop into a tropical depression or storm, and will likely target Florida and the Gulf Coast this weekend into next week.

Right now, the disturbance remains a broad area of low pressure pushing through the Dominican Republic and Haiti, headed toward the southeast Bahamas. Rainfall totals over 3 inches (with locally higher amounts) are expected in HispaƱiola, particularly over elevated terrain.

10-Day Weather Forecast

Almanac

Astronomy

Aug. 25, 2016 Rise Set
Actual Time
Civil Twilight
Nautical Twilight
Astronomical Twilight
Moon
Length of Visible Light
Length of Day
Tomorrow will be .
, % of the Moon is Illuminated

Today's Extremes

State Highs State Lows

Community

WunderPhotos

Upload Photos

1,934,921 photos uploaded!

WunderBlog® & News

Nearby

Air Quality

  Air Quality AQ Index Pollutant
Not available.

Snow Depth

Station Depth Elevation

Earthquake Activity

City Distance Mag. Time & Date
Minimum magnitude displayed is 2.5.

Coastal Water Temperatures

Place Temperature

Stations

Nearby Weather Stations

Station Location Temp. Windchill Dew Point Humidity Wind Precip. Elev Updated Type
                   

Watches & Warnings

Air Quality Alert
Issued: National Weather Service

nnnn


hours.

Nnnn